PWSweather.com
Personal Weather Stations
Station Observations
SWHWX01
St AppolinardFR 38160

St AppolinardFR 38160

Lat: 45.191, Lon: 5.268

Elevation: 1460

Station Type: Davis Vantage Pro2 Plus

www.sweetwebhome.com/?show=wxindex

High Low Average
Temperature 60.6°F15.9°C 41.0°F5.0°C 49.6°F9.8°C
Dew Point 41.6°F5.3°C 36.6°F2.6°C 39.1°F3.9°C
Winds 6.8 mph 10.9 kmh Calm Calm 2.0 mph SW3.2 kmh SW
Wind Gusts 11.0 mph17.7 kmh -- 3.0 mph4.8 kmh
Humidity 84% 44% 68%
Pressure 30.41 in1029.8 mb 30.32 in1026.8 mb -
Precipitation 0.00 in0.0 mm - -
Hour Temp Dew Point Humidity Winds Wind Gusts Pressure Precip Precip Rate Daily Precip Total
12:00 AM 46.2°F7.9°C 38.0°F3.3°C 73% 1.5 mph SSE2.4 kmh SSE 2.0 mph3.2 kmh 30.32 in1026.8 mb - 0.00 in0.0 mm 0.00 in0.0 mm
12:30 AM 45.6°F7.6°C 37.8°F3.2°C 74% 2.2 mph SSE3.5 kmh SSE 3.0 mph4.8 kmh 30.32 in1026.8 mb - 0.00 in0.0 mm 0.00 in0.0 mm
01:00 AM 45.6°F7.6°C 38.1°F3.4°C 75% 2.0 mph SSE3.2 kmh SSE 3.0 mph4.8 kmh 30.33 in1027.1 mb - 0.00 in0.0 mm 0.00 in0.0 mm
01:30 AM 45.3°F7.4°C 38.2°F3.4°C 76% 1.8 mph SSE2.9 kmh SSE 2.0 mph3.2 kmh 30.33 in1027.1 mb - 0.00 in0.0 mm 0.00 in0.0 mm
02:00 AM 44.9°F7.2°C 38.1°F3.4°C 77% 2.2 mph SSE3.5 kmh SSE 2.0 mph3.2 kmh 30.33 in1027.1 mb - 0.00 in0.0 mm 0.00 in0.0 mm
02:30 AM 44.6°F7.0°C 38.5°F3.6°C 79% 2.0 mph SSE3.2 kmh SSE 3.0 mph4.8 kmh 30.34 in1027.4 mb - 0.00 in0.0 mm 0.00 in0.0 mm
03:00 AM 44.9°F7.2°C 38.1°F3.4°C 77% Calm Calm -- 30.34 in1027.4 mb - 0.00 in0.0 mm 0.00 in0.0 mm
03:30 AM 43.4°F6.3°C 38.0°F3.3°C 81% Calm Calm -- 30.33 in1027.1 mb - 0.00 in0.0 mm 0.00 in0.0 mm
04:00 AM 43.3°F6.3°C 37.9°F3.3°C 81% Calm Calm -- 30.33 in1027.1 mb - 0.00 in0.0 mm 0.00 in0.0 mm
04:30 AM 43.2°F6.2°C 38.1°F3.4°C 82% 2.0 mph SSE3.2 kmh SSE 3.0 mph4.8 kmh 30.34 in1027.4 mb - 0.00 in0.0 mm 0.00 in0.0 mm
05:00 AM 43.7°F6.5°C 38.2°F3.4°C 81% 2.4 mph SSE3.9 kmh SSE 3.0 mph4.8 kmh 30.33 in1027.1 mb - 0.00 in0.0 mm 0.00 in0.0 mm
05:30 AM 42.5°F5.8°C 37.4°F3.0°C 82% Calm Calm -- 30.34 in1027.4 mb - 0.00 in0.0 mm 0.00 in0.0 mm
06:00 AM 42.0°F5.6°C 37.5°F3.1°C 84% Calm Calm -- 30.34 in1027.4 mb - 0.00 in0.0 mm 0.00 in0.0 mm
06:30 AM 41.7°F5.4°C 37.2°F2.9°C 84% 1.8 mph SSE2.9 kmh SSE 3.0 mph4.8 kmh 30.35 in1027.8 mb - 0.00 in0.0 mm 0.00 in0.0 mm
07:00 AM 41.8°F5.4°C 37.3°F2.9°C 84% 1.0 mph SSE1.6 kmh SSE 2.0 mph3.2 kmh 30.34 in1027.4 mb - 0.00 in0.0 mm 0.00 in0.0 mm
07:30 AM 43.2°F6.2°C 37.5°F3.1°C 80% Calm Calm -- 30.35 in1027.8 mb - 0.00 in0.0 mm 0.00 in0.0 mm
08:00 AM 41.0°F5.0°C 36.6°F2.6°C 84% Calm Calm -- 30.36 in1028.1 mb - 0.00 in0.0 mm 0.00 in0.0 mm
08:30 AM 42.1°F5.6°C 37.3°F2.9°C 83% Calm Calm -- 30.37 in1028.4 mb - 0.00 in0.0 mm 0.00 in0.0 mm
09:00 AM 45.4°F7.4°C 39.6°F4.2°C 80% Calm Calm -- 30.37 in1028.4 mb - 0.00 in0.0 mm 0.00 in0.0 mm
09:30 AM 46.7°F8.2°C 40.2°F4.6°C 78% 0.2 mph SSE0.3 kmh SSE 1.0 mph1.6 kmh 30.38 in1028.8 mb - 0.00 in0.0 mm 0.00 in0.0 mm
10:00 AM 48.2°F9.0°C 41.3°F5.2°C 77% 1.1 mph SSE1.8 kmh SSE 3.0 mph4.8 kmh 30.38 in1028.8 mb - 0.00 in0.0 mm 0.00 in0.0 mm
10:30 AM 49.6°F9.8°C 41.3°F5.2°C 73% 2.2 mph SSE3.5 kmh SSE 3.0 mph4.8 kmh 30.38 in1028.8 mb - 0.00 in0.0 mm 0.00 in0.0 mm
11:00 AM 50.6°F10.3°C 41.2°F5.1°C 70% 2.6 mph SSE4.2 kmh SSE 3.0 mph4.8 kmh 30.39 in1029.1 mb - 0.00 in0.0 mm 0.00 in0.0 mm
11:30 AM 52.3°F11.3°C 41.6°F5.3°C 67% 2.2 mph SSE3.5 kmh SSE 5.0 mph8.0 kmh 30.39 in1029.1 mb - 0.00 in0.0 mm 0.00 in0.0 mm
12:00 PM 53.6°F12.0°C 40.9°F4.9°C 62% 2.0 mph SSE3.2 kmh SSE 3.0 mph4.8 kmh 30.38 in1028.8 mb - 0.00 in0.0 mm 0.00 in0.0 mm
12:30 PM 54.1°F12.3°C 40.9°F4.9°C 61% 3.4 mph SSE5.5 kmh SSE 5.0 mph8.0 kmh 30.38 in1028.8 mb - 0.00 in0.0 mm 0.00 in0.0 mm
01:00 PM 56.0°F13.3°C 41.0°F5.0°C 57% 2.1 mph SSE3.4 kmh SSE 3.0 mph4.8 kmh 30.37 in1028.4 mb - 0.00 in0.0 mm 0.00 in0.0 mm
01:30 PM 56.6°F13.7°C 40.2°F4.6°C 54% 2.0 mph SE3.2 kmh SE 3.0 mph4.8 kmh 30.37 in1028.4 mb - 0.00 in0.0 mm 0.00 in0.0 mm
02:00 PM 58.6°F14.8°C 41.0°F5.0°C 52% 2.6 mph SE4.2 kmh SE 4.0 mph6.4 kmh 30.37 in1028.4 mb - 0.00 in0.0 mm 0.00 in0.0 mm
02:30 PM 59.6°F15.3°C 40.4°F4.7°C 49% 2.5 mph SE4.0 kmh SE 3.0 mph4.8 kmh 30.36 in1028.1 mb - 0.00 in0.0 mm 0.00 in0.0 mm
03:00 PM 60.1°F15.6°C 40.3°F4.6°C 48% 1.4 mph SE2.3 kmh SE 2.0 mph3.2 kmh 30.36 in1028.1 mb - 0.00 in0.0 mm 0.00 in0.0 mm
03:30 PM 60.6°F15.9°C 38.5°F3.6°C 44% 6.8 mph NNW10.9 kmh NNW 11.0 mph17.7 kmh 30.36 in1028.1 mb - 0.00 in0.0 mm 0.00 in0.0 mm
04:00 PM 59.4°F15.2°C 39.7°F4.3°C 48% 5.1 mph NNW8.2 kmh NNW 6.0 mph9.7 kmh 30.36 in1028.1 mb - 0.00 in0.0 mm 0.00 in0.0 mm
04:30 PM 59.2°F15.1°C 40.6°F4.8°C 50% 2.5 mph NNW4.0 kmh NNW 7.0 mph11.3 kmh 30.36 in1028.1 mb - 0.00 in0.0 mm 0.00 in0.0 mm
05:00 PM 59.0°F15.0°C 40.9°F4.9°C 51% 1.1 mph N1.8 kmh N 2.0 mph3.2 kmh 30.36 in1028.1 mb - 0.00 in0.0 mm 0.00 in0.0 mm
05:30 PM 58.2°F14.6°C 40.1°F4.5°C 51% 3.6 mph N5.8 kmh N 7.0 mph11.3 kmh 30.36 in1028.1 mb - 0.00 in0.0 mm 0.00 in0.0 mm
06:00 PM 56.2°F13.4°C 39.7°F4.3°C 54% 0.1 mph N0.2 kmh N 1.0 mph1.6 kmh 30.37 in1028.4 mb - 0.00 in0.0 mm 0.00 in0.0 mm
06:30 PM 52.3°F11.3°C 39.7°F4.3°C 62% 3.9 mph N6.3 kmh N 4.0 mph6.4 kmh 30.37 in1028.4 mb - 0.00 in0.0 mm 0.00 in0.0 mm
07:00 PM 51.2°F10.7°C 39.0°F3.9°C 63% 3.7 mph N6.0 kmh N 5.0 mph8.0 kmh 30.38 in1028.8 mb - 0.00 in0.0 mm 0.00 in0.0 mm
07:30 PM 49.9°F9.9°C 39.4°F4.1°C 67% 3.5 mph N5.6 kmh N 5.0 mph8.0 kmh 30.38 in1028.8 mb - 0.00 in0.0 mm 0.00 in0.0 mm
08:00 PM 50.0°F10.0°C 38.7°F3.7°C 65% 3.6 mph N5.8 kmh N 5.0 mph8.0 kmh 30.38 in1028.8 mb - 0.00 in0.0 mm 0.00 in0.0 mm
08:30 PM 49.2°F9.6°C 37.9°F3.3°C 65% 3.4 mph N5.5 kmh N 4.0 mph6.4 kmh 30.39 in1029.1 mb - 0.00 in0.0 mm 0.00 in0.0 mm
09:00 PM 50.0°F10.0°C 37.9°F3.3°C 63% 2.1 mph N3.4 kmh N 3.0 mph4.8 kmh 30.40 in1029.5 mb - 0.00 in0.0 mm 0.00 in0.0 mm
09:30 PM 50.2°F10.1°C 38.5°F3.6°C 64% 0.6 mph N1.0 kmh N 3.0 mph4.8 kmh 30.41 in1029.8 mb - 0.00 in0.0 mm 0.00 in0.0 mm
10:00 PM 50.2°F10.1°C 38.9°F3.8°C 65% 0.5 mph N0.8 kmh N 3.0 mph4.8 kmh 30.41 in1029.8 mb - 0.00 in0.0 mm 0.00 in0.0 mm
10:30 PM 49.1°F9.5°C 38.6°F3.7°C 67% 4.2 mph N6.8 kmh N 5.0 mph8.0 kmh 30.40 in1029.5 mb - 0.00 in0.0 mm 0.00 in0.0 mm
11:00 PM 49.7°F9.8°C 38.8°F3.8°C 66% 1.4 mph N2.3 kmh N 1.0 mph1.6 kmh 30.41 in1029.8 mb - 0.00 in0.0 mm 0.00 in0.0 mm
11:30 PM 50.1°F10.1°C 39.2°F4.0°C 66% 3.9 mph N6.3 kmh N 6.0 mph9.7 kmh 30.41 in1029.8 mb - 0.00 in0.0 mm 0.00 in0.0 mm